createdAt,value
2023-01-19T00:00:58.907Z,-1.21
2023-01-19T00:03:27.380Z,-1.19
2023-01-19T00:05:55.959Z,-1.16
2023-01-19T00:08:25.925Z,-1.17
2023-01-19T00:10:54.439Z,-1.01
2023-01-19T00:13:23.042Z,-1.03
2023-01-19T00:15:51.743Z,-1.08
2023-01-19T00:18:20.404Z,-1.11
2023-01-19T00:20:49.558Z,-1.01
2023-01-19T00:23:18.734Z,-1.06
2023-01-19T00:25:49.499Z,-1.01
2023-01-19T00:28:21.211Z,-1.04
2023-01-19T00:30:51.864Z,-1.03
2023-01-19T00:33:20.497Z,-1.03
2023-01-19T00:35:53.286Z,-1.01
2023-01-19T00:38:22.271Z,-1.05
2023-01-19T00:40:52.450Z,-1.00
2023-01-19T00:43:21.048Z,-0.92
2023-01-19T00:45:49.673Z,-0.92
2023-01-19T00:48:18.300Z,-0.99
2023-01-19T00:50:46.927Z,-0.97
2023-01-19T00:53:15.472Z,-1.05
2023-01-19T00:55:44.027Z,-0.93
2023-01-19T00:58:14.206Z,-0.82
2023-01-19T01:00:43.093Z,-0.68
2023-01-19T01:03:11.748Z,-0.58
2023-01-19T01:05:42.696Z,-0.37
2023-01-19T01:08:11.289Z,-0.61
2023-01-19T01:10:39.790Z,-0.74
2023-01-19T01:13:20.860Z,-0.85
2023-01-19T01:15:53.610Z,-0.91
2023-01-19T01:18:23.041Z,-0.93
2023-01-19T01:20:51.704Z,-0.76
2023-01-19T01:23:23.123Z,-0.84
2023-01-19T01:25:51.925Z,-0.73
2023-01-19T01:28:20.751Z,-0.98
2023-01-19T01:30:49.413Z,-1.05
2023-01-19T01:33:40.472Z,-0.97
2023-01-19T01:36:09.584Z,-1.04
2023-01-19T01:38:38.093Z,-1.12
2023-01-19T01:41:06.948Z,-1.10
2023-01-19T01:43:50.464Z,-1.02
2023-01-19T01:46:20.141Z,-1.05
2023-01-19T01:48:55.780Z,-0.96
2023-01-19T01:51:30.163Z,-0.92
2023-01-19T01:54:08.361Z,-1.05
2023-01-19T01:56:40.424Z,-1.05
2023-01-19T01:59:14.375Z,-1.16
2023-01-19T02:02:00.485Z,-0.82
2023-01-19T02:04:32.201Z,-0.90
2023-01-19T02:07:18.073Z,-0.89
2023-01-19T02:10:04.298Z,-0.78
2023-01-19T02:12:50.914Z,-0.96
2023-01-19T02:15:21.825Z,-0.89
2023-01-19T02:17:51.164Z,-0.99
2023-01-19T02:20:25.587Z,-0.92
2023-01-19T02:22:56.587Z,-0.87
2023-01-19T02:25:26.917Z,-0.81
2023-01-19T02:27:56.990Z,-0.73
2023-01-19T02:30:25.879Z,-0.62
2023-01-19T02:32:54.490Z,-0.71
2023-01-19T02:35:24.662Z,-0.63
2023-01-19T02:37:54.523Z,-0.71
2023-01-19T02:40:26.248Z,-0.78
2023-01-19T02:43:01.339Z,-0.86
2023-01-19T02:45:30.712Z,-0.93
2023-01-19T02:47:59.326Z,-0.99
2023-01-19T02:50:47.708Z,-1.04
2023-01-19T02:53:34.530Z,-1.11
2023-01-19T02:56:20.311Z,-1.15
2023-01-19T02:58:58.308Z,-1.17
2023-01-19T03:01:37.219Z,-1.18
2023-01-19T03:04:14.983Z,-1.18
2023-01-19T03:06:48.607Z,-1.18
2023-01-19T03:09:24.389Z,-1.14
2023-01-19T03:12:03.645Z,-1.17
2023-01-19T03:14:35.865Z,-1.17
2023-01-19T03:17:07.282Z,-1.19
2023-01-19T03:19:39.693Z,-1.20
2023-01-19T03:22:14.449Z,-1.23
2023-01-19T03:24:46.717Z,-1.24
2023-01-19T03:27:21.390Z,-1.25
2023-01-19T03:29:53.603Z,-1.25
2023-01-19T03:32:26.378Z,-1.25
2023-01-19T03:34:56.787Z,-1.25
2023-01-19T03:37:27.506Z,-1.26
2023-01-19T03:39:56.711Z,-1.27
2023-01-19T03:42:28.660Z,-1.26
2023-01-19T03:44:58.673Z,-1.27
2023-01-19T03:47:27.523Z,-1.26
2023-01-19T03:49:57.958Z,-1.28
2023-01-19T03:52:30.406Z,-1.28
2023-01-19T03:54:59.065Z,-1.27
2023-01-19T03:57:29.334Z,-1.26
2023-01-19T03:59:58.209Z,-1.28
2023-01-19T04:02:27.450Z,-1.27
2023-01-19T04:04:56.209Z,-1.27
2023-01-19T04:07:24.814Z,-1.29
2023-01-19T04:09:53.487Z,-1.28
2023-01-19T04:12:22.118Z,-1.27
2023-01-19T04:14:52.233Z,-1.28
2023-01-19T04:17:20.809Z,-1.27
2023-01-19T04:19:49.404Z,-1.26
2023-01-19T04:22:17.887Z,-1.27
2023-01-19T04:24:46.542Z,-1.25
2023-01-19T04:27:16.538Z,-1.25
2023-01-19T04:29:45.136Z,-1.24
2023-01-19T04:32:17.052Z,-1.25
2023-01-19T04:34:45.699Z,-1.23
2023-01-19T04:37:14.416Z,-1.23
2023-01-19T04:39:43.032Z,-1.22
2023-01-19T04:42:11.742Z,-1.23
2023-01-19T04:44:40.414Z,-1.21
2023-01-19T04:47:13.052Z,-1.21
2023-01-19T04:49:47.051Z,-1.21
2023-01-19T04:52:17.055Z,-1.26
2023-01-19T04:54:48.804Z,-1.20
2023-01-19T04:57:17.713Z,-1.24
2023-01-19T04:59:46.629Z,-1.21
2023-01-19T05:02:15.703Z,-1.21
2023-01-19T05:04:45.932Z,-1.18
2023-01-19T05:07:14.891Z,-1.19
2023-01-19T05:09:43.887Z,-1.21
2023-01-19T05:12:15.926Z,-1.20
2023-01-19T05:14:44.857Z,-1.19
2023-01-19T05:17:16.511Z,-1.19
2023-01-19T05:19:48.109Z,-1.21
2023-01-19T05:22:17.973Z,-1.22
2023-01-19T05:24:46.784Z,-1.22
2023-01-19T05:27:17.720Z,-1.22
2023-01-19T05:29:49.651Z,-1.20
2023-01-19T05:32:18.931Z,-1.20
2023-01-19T05:34:54.876Z,-1.18
2023-01-19T05:37:23.889Z,-1.16
2023-01-19T05:39:58.421Z,-1.18
2023-01-19T05:42:32.746Z,-1.17
2023-01-19T05:45:02.145Z,-1.16
2023-01-19T05:47:31.777Z,-1.14
2023-01-19T05:50:08.610Z,-1.16
2023-01-19T05:52:37.754Z,-1.15
2023-01-19T05:55:09.825Z,-1.14
2023-01-19T05:57:40.433Z,-1.13
2023-01-19T06:00:10.889Z,-1.10
2023-01-19T06:02:41.871Z,-1.09
2023-01-19T06:05:12.336Z,-1.09
2023-01-19T06:07:41.253Z,-1.08
2023-01-19T06:10:11.345Z,-1.06
2023-01-19T06:12:41.447Z,-1.09
2023-01-19T06:15:10.741Z,-1.08
2023-01-19T06:17:39.576Z,-1.08
2023-01-19T06:20:10.350Z,-1.11
2023-01-19T06:22:40.578Z,-1.09
2023-01-19T06:25:10.237Z,-1.09
2023-01-19T06:27:40.070Z,-1.11
2023-01-19T06:30:13.632Z,-1.10
2023-01-19T06:32:42.633Z,-1.09
2023-01-19T06:35:12.466Z,-1.10
2023-01-19T06:37:43.231Z,-1.10
2023-01-19T06:40:14.505Z,-1.10
2023-01-19T06:42:43.848Z,-1.12
2023-01-19T06:45:12.922Z,-1.11
2023-01-19T06:47:41.928Z,-1.13
2023-01-19T06:50:11.942Z,-1.15
2023-01-19T06:52:42.985Z,-1.13
2023-01-19T06:55:12.802Z,-1.15
2023-01-19T06:57:41.698Z,-1.14
2023-01-19T07:00:12.095Z,-1.15
2023-01-19T07:02:44.053Z,-1.14
2023-01-19T07:05:14.662Z,-1.14
2023-01-19T07:07:45.682Z,-1.10
2023-01-19T07:10:16.596Z,-1.09
2023-01-19T07:12:48.071Z,-1.06
2023-01-19T07:15:23.207Z,-1.07
2023-01-19T07:17:55.426Z,-1.06
2023-01-19T07:20:24.066Z,-1.05
2023-01-19T07:23:13.817Z,-1.01
2023-01-19T07:25:45.607Z,-1.02
2023-01-19T07:28:16.849Z,-0.99
2023-01-19T07:30:54.187Z,-0.99
2023-01-19T07:33:25.070Z,-0.97
2023-01-19T07:35:54.722Z,-0.97
2023-01-19T07:38:24.966Z,-0.95
2023-01-19T07:40:54.004Z,-0.93
2023-01-19T07:43:22.929Z,-0.92
2023-01-19T07:45:52.488Z,-0.91
2023-01-19T07:48:21.682Z,-0.90
2023-01-19T07:50:50.422Z,-0.92
2023-01-19T07:53:19.410Z,-0.93
2023-01-19T07:55:56.712Z,-0.93
2023-01-19T07:58:26.675Z,-0.92
2023-01-19T08:00:55.559Z,-0.89
2023-01-19T08:03:24.835Z,-0.90
2023-01-19T08:05:54.831Z,-0.88
2023-01-19T08:08:23.870Z,-0.86
2023-01-19T08:10:54.727Z,-0.83
2023-01-19T08:13:23.605Z,-0.84
2023-01-19T08:15:53.003Z,-0.83
2023-01-19T08:18:22.408Z,-0.79
2023-01-19T08:20:51.647Z,-0.76
2023-01-19T08:23:20.554Z,-0.72
2023-01-19T08:25:53.695Z,-0.71
2023-01-19T08:28:23.254Z,-0.67
2023-01-19T08:30:55.318Z,-0.69
2023-01-19T08:33:28.405Z,-0.64
2023-01-19T08:35:57.341Z,-0.59
2023-01-19T08:38:26.012Z,-0.60
2023-01-19T08:40:56.296Z,-0.59
2023-01-19T08:43:27.747Z,-0.57
2023-01-19T08:45:56.752Z,-0.61
2023-01-19T08:48:25.745Z,-0.57
2023-01-19T08:50:58.050Z,-0.58
2023-01-19T08:53:27.157Z,-0.51
2023-01-19T08:56:00.210Z,-0.51
2023-01-19T08:58:29.272Z,-0.52
2023-01-19T09:00:58.252Z,-0.50
2023-01-19T09:03:28.672Z,-0.52
2023-01-19T09:05:57.342Z,-0.50
2023-01-19T09:08:26.420Z,-0.52
2023-01-19T09:10:57.828Z,-0.52
2023-01-19T09:13:32.627Z,-0.55
2023-01-19T09:16:04.588Z,-0.50
2023-01-19T09:18:38.467Z,-0.51
2023-01-19T09:21:14.304Z,-0.49
2023-01-19T09:23:43.404Z,-0.50
2023-01-19T09:26:12.172Z,-0.50
2023-01-19T09:28:45.246Z,-0.50
2023-01-19T09:31:15.965Z,-0.45
2023-01-19T09:33:47.544Z,-0.46
2023-01-19T09:36:17.186Z,-0.46
2023-01-19T09:38:46.334Z,-0.45
2023-01-19T09:41:21.640Z,-0.39
2023-01-19T09:43:56.325Z,-0.36
2023-01-19T09:46:38.024Z,-0.33
2023-01-19T09:49:21.637Z,-0.35
2023-01-19T09:51:53.210Z,-0.37
2023-01-19T09:54:25.727Z,-0.39
2023-01-19T09:56:59.647Z,-0.38
2023-01-19T09:59:47.111Z,-0.36
2023-01-19T10:02:29.944Z,-0.34
2023-01-19T10:05:05.894Z,-0.36
2023-01-19T10:07:46.228Z,-0.40
2023-01-19T10:10:21.709Z,-0.39
2023-01-19T10:13:04.453Z,-0.34
2023-01-19T10:15:46.359Z,-0.33
2023-01-19T10:18:57.773Z,-0.34
2023-01-19T10:21:32.488Z,-0.37
2023-01-19T10:24:06.652Z,-0.36
2023-01-19T10:26:40.432Z,-0.34
2023-01-19T10:29:15.551Z,-0.31
2023-01-19T10:31:49.770Z,-0.29
2023-01-19T10:34:23.232Z,-0.28
2023-01-19T10:37:02.488Z,-0.29
2023-01-19T10:39:31.841Z,-0.28
2023-01-19T10:42:04.058Z,-0.28
2023-01-19T10:44:38.894Z,-0.25
2023-01-19T10:47:18.400Z,-0.27
2023-01-19T10:50:00.251Z,-0.24
2023-01-19T10:52:34.181Z,-0.27
2023-01-19T10:55:11.845Z,-0.26
2023-01-19T10:57:46.224Z,-0.29
2023-01-19T11:00:33.301Z,-0.29
2023-01-19T11:03:03.950Z,-0.28
2023-01-19T11:05:34.965Z,-0.28
2023-01-19T11:08:26.007Z,-0.29
2023-01-19T11:11:02.838Z,-0.33
2023-01-19T11:13:32.130Z,-0.32
2023-01-19T11:16:06.136Z,-0.31
2023-01-19T11:18:39.158Z,-0.30
2023-01-19T11:21:11.113Z,-0.29
2023-01-19T11:23:46.429Z,-0.28
2023-01-19T11:26:17.268Z,-0.28
2023-01-19T11:28:51.608Z,-0.29
2023-01-19T11:31:31.531Z,-0.28
2023-01-19T11:34:03.747Z,-0.35
2023-01-19T11:36:35.052Z,-0.33
2023-01-19T11:39:23.793Z,-0.36
2023-01-19T11:41:55.470Z,-0.34
2023-01-19T11:44:27.611Z,-0.36
2023-01-19T11:46:59.085Z,-0.37
2023-01-19T11:49:35.073Z,-0.38
2023-01-19T11:52:08.293Z,-0.41
2023-01-19T11:54:43.207Z,-0.41
2023-01-19T11:57:15.332Z,-0.44
2023-01-19T11:59:44.152Z,-0.45
2023-01-19T12:02:22.062Z,-0.46
2023-01-19T12:04:55.860Z,-0.47
2023-01-19T12:07:30.316Z,-0.45
2023-01-19T12:10:08.890Z,-0.46
2023-01-19T12:12:41.888Z,-0.47
2023-01-19T12:15:22.960Z,-0.45
2023-01-19T12:17:53.780Z,-0.46
2023-01-19T12:20:29.427Z,-0.45
2023-01-19T12:23:09.561Z,-0.43
2023-01-19T12:25:58.154Z,-0.43
2023-01-19T12:28:31.910Z,-0.41
2023-01-19T12:31:02.435Z,-0.43
2023-01-19T12:33:36.269Z,-0.40
2023-01-19T12:36:11.949Z,-0.43
2023-01-19T12:38:49.425Z,-0.40
2023-01-19T12:41:21.396Z,-0.42
2023-01-19T12:44:14.864Z,-0.43
2023-01-19T12:46:46.308Z,-0.44
2023-01-19T12:49:26.440Z,-0.44
2023-01-19T12:52:15.525Z,-0.43
2023-01-19T12:54:52.210Z,-0.45
2023-01-19T12:57:25.305Z,-0.46
2023-01-19T12:59:59.092Z,-0.48
2023-01-19T13:02:46.616Z,-0.48
2023-01-19T13:05:28.486Z,-0.50
2023-01-19T13:08:19.488Z,-0.51
2023-01-19T13:11:24.982Z,-0.50
2023-01-19T13:14:38.285Z,-0.52
2023-01-19T13:17:29.593Z,-0.52
2023-01-19T13:20:22.303Z,-0.54
2023-01-19T13:23:26.605Z,-0.49
2023-01-19T13:26:21.470Z,-0.51
2023-01-19T13:28:54.151Z,-0.53
2023-01-19T13:31:24.118Z,-0.54
2023-01-19T13:33:55.428Z,-0.48
2023-01-19T13:36:28.929Z,-0.51
2023-01-19T13:39:18.271Z,-0.52
2023-01-19T13:41:50.863Z,-0.53
2023-01-19T13:44:24.088Z,-0.56
2023-01-19T13:46:54.149Z,-0.52
2023-01-19T13:49:31.260Z,-0.51
2023-01-19T13:52:15.611Z,-0.57
2023-01-19T13:54:53.523Z,-0.60
2023-01-19T13:57:29.739Z,-0.57
2023-01-19T14:00:07.944Z,-0.57
2023-01-19T14:02:43.791Z,-0.56
2023-01-19T14:05:16.082Z,-0.57
2023-01-19T14:07:44.695Z,-0.58
2023-01-19T14:10:17.272Z,-0.60
2023-01-19T14:12:58.944Z,-0.57
2023-01-19T14:15:28.499Z,-0.57
2023-01-19T14:18:33.320Z,-0.52
2023-01-19T14:21:07.070Z,-0.57
2023-01-19T14:23:49.593Z,-0.62
2023-01-19T14:26:48.995Z,-0.61
2023-01-19T14:29:23.296Z,-0.66
2023-01-19T14:31:56.882Z,-0.68
2023-01-19T14:34:39.058Z,-0.67
2023-01-19T14:37:20.874Z,-0.66
2023-01-19T14:39:51.861Z,-0.63
2023-01-19T14:42:23.900Z,-0.60
2023-01-19T14:44:54.732Z,-0.49
2023-01-19T14:48:02.428Z,-0.48
2023-01-19T14:50:35.624Z,-0.32
2023-01-19T14:53:06.576Z,-0.24
2023-01-19T14:55:39.507Z,-0.22
2023-01-19T14:58:14.665Z,-0.30
2023-01-19T15:00:44.729Z,-0.25
2023-01-19T15:03:15.011Z,-0.44
2023-01-19T15:05:47.531Z,-0.34
2023-01-19T15:08:21.267Z,-0.24
2023-01-19T15:10:50.226Z,-0.19
2023-01-19T15:13:22.400Z,-0.17
2023-01-19T15:15:51.856Z,-0.03
2023-01-19T15:18:25.889Z,-0.03
2023-01-19T15:20:55.445Z,-0.01
2023-01-19T15:23:24.416Z,0.02
2023-01-19T15:25:57.707Z,0.20
2023-01-19T15:28:28.571Z,0.24
2023-01-19T15:31:00.369Z,-0.08
2023-01-19T15:33:32.391Z,-0.01
2023-01-19T15:36:01.679Z,-0.02
2023-01-19T15:38:31.097Z,-0.24
2023-01-19T15:41:00.798Z,-0.08
2023-01-19T15:43:31.881Z,-0.35
2023-01-19T15:46:03.207Z,-0.18
2023-01-19T15:48:32.002Z,-0.10
2023-01-19T15:51:01.004Z,-0.07
2023-01-19T15:53:30.842Z,-0.31
2023-01-19T15:55:59.687Z,-0.29
2023-01-19T15:58:28.533Z,-0.35
2023-01-19T16:01:00.920Z,-0.28
2023-01-19T16:03:29.973Z,-0.34
2023-01-19T16:06:02.570Z,-0.26
2023-01-19T16:08:31.225Z,-0.32
2023-01-19T16:11:04.463Z,-0.46
2023-01-19T16:13:33.183Z,-0.57
2023-01-19T16:16:08.444Z,-0.50
2023-01-19T16:18:37.661Z,-0.56
2023-01-19T16:21:07.238Z,-0.48
2023-01-19T16:23:36.156Z,-0.39
2023-01-19T16:26:09.589Z,-0.34
2023-01-19T16:28:39.050Z,-0.18
2023-01-19T16:31:09.119Z,-0.26
2023-01-19T16:33:37.740Z,-0.20
2023-01-19T16:36:20.322Z,-0.22
2023-01-19T16:38:49.369Z,-0.33
2023-01-19T16:41:22.447Z,-0.25
2023-01-19T16:43:55.959Z,-0.09
2023-01-19T16:46:28.407Z,-0.08
2023-01-19T16:49:03.284Z,0.03
2023-01-19T16:51:33.062Z,-0.23
2023-01-19T16:54:01.753Z,-0.43
2023-01-19T16:56:30.572Z,-0.29
2023-01-19T16:59:00.632Z,-0.61
2023-01-19T17:01:35.890Z,-0.74
2023-01-19T17:04:05.780Z,-0.79
2023-01-19T17:06:34.953Z,-0.64
2023-01-19T17:09:03.853Z,-0.47
2023-01-19T17:11:35.294Z,-0.51
2023-01-19T17:14:07.408Z,-0.50
2023-01-19T17:16:37.918Z,-0.58
2023-01-19T17:19:08.521Z,-0.69
2023-01-19T17:21:37.297Z,-0.74
2023-01-19T17:24:06.406Z,-0.61
2023-01-19T17:26:34.990Z,-0.62
2023-01-19T17:29:06.071Z,-0.35
2023-01-19T17:31:37.291Z,-0.66
2023-01-19T17:34:06.771Z,-0.80
2023-01-19T17:36:35.491Z,-0.84
2023-01-19T17:39:08.763Z,-0.74
2023-01-19T17:41:37.484Z,-0.73
2023-01-19T17:44:08.404Z,-0.57
2023-01-19T17:46:40.466Z,-0.65
2023-01-19T17:49:09.582Z,-0.68
2023-01-19T17:51:40.037Z,-0.73
2023-01-19T17:54:12.771Z,-0.78
2023-01-19T17:56:41.830Z,-0.75
2023-01-19T17:59:10.377Z,-0.75
2023-01-19T18:01:40.985Z,-0.56
2023-01-19T18:04:44.013Z,-0.65
2023-01-19T18:07:15.482Z,-0.82
2023-01-19T18:09:44.047Z,-0.59
2023-01-19T18:12:12.724Z,-0.74
2023-01-19T18:14:41.721Z,-0.59
2023-01-19T18:17:11.827Z,-0.62
2023-01-19T18:19:41.205Z,-0.83
2023-01-19T18:22:11.362Z,-0.99
2023-01-19T18:24:40.037Z,-0.97
2023-01-19T18:27:08.484Z,-0.85
2023-01-19T18:29:37.049Z,-0.69
2023-01-19T18:32:06.696Z,-0.59
2023-01-19T18:34:37.192Z,-0.58
2023-01-19T18:37:05.929Z,-0.68
2023-01-19T18:39:37.494Z,-0.81
2023-01-19T18:42:06.392Z,-0.83
2023-01-19T18:44:35.248Z,-0.49
2023-01-19T18:47:04.374Z,-0.74
2023-01-19T18:49:33.015Z,-0.65
2023-01-19T18:52:04.073Z,-0.65
2023-01-19T18:54:36.674Z,-0.68
2023-01-19T18:57:05.613Z,-0.61
2023-01-19T18:59:34.303Z,-0.81
2023-01-19T19:02:05.478Z,-0.98
2023-01-19T19:04:34.139Z,-0.98
2023-01-19T19:07:04.261Z,-0.67
2023-01-19T19:09:33.273Z,-0.88
2023-01-19T19:12:01.853Z,-0.95
2023-01-19T19:14:30.657Z,-0.90
2023-01-19T19:16:59.223Z,-1.11
2023-01-19T19:19:27.806Z,-1.20
2023-01-19T19:21:56.886Z,-1.11
2023-01-19T19:24:27.057Z,-1.06
2023-01-19T19:26:55.601Z,-1.08
2023-01-19T19:29:24.220Z,-1.02
2023-01-19T19:31:52.780Z,-1.11
2023-01-19T19:34:21.300Z,-1.12
2023-01-19T19:36:49.923Z,-1.16
2023-01-19T19:39:18.750Z,-1.15
2023-01-19T19:41:49.058Z,-1.23
2023-01-19T19:44:17.580Z,-1.19
2023-01-19T19:46:46.177Z,-1.24
2023-01-19T19:49:15.962Z,-1.35
2023-01-19T19:51:44.606Z,-1.39
2023-01-19T19:54:13.015Z,-1.30
2023-01-19T19:56:41.795Z,-1.23
2023-01-19T19:59:11.689Z,-1.11
2023-01-19T20:01:40.292Z,-1.07
2023-01-19T20:04:11.003Z,-1.31
2023-01-19T20:06:41.708Z,-1.38
2023-01-19T20:09:12.868Z,-1.46
2023-01-19T20:11:42.096Z,-1.44
2023-01-19T20:14:14.214Z,-1.63
2023-01-19T20:16:42.732Z,-1.82
2023-01-19T20:19:11.838Z,-1.91
2023-01-19T20:21:42.979Z,-1.69
2023-01-19T20:24:14.191Z,-1.55
2023-01-19T20:26:43.595Z,-1.41
2023-01-19T20:29:13.771Z,-1.08
2023-01-19T20:31:45.452Z,-1.10
2023-01-19T20:34:16.730Z,-1.11
2023-01-19T20:36:50.064Z,-1.31
2023-01-19T20:39:19.797Z,-1.22
2023-01-19T20:41:51.192Z,-1.26
2023-01-19T20:44:24.212Z,-1.15
2023-01-19T20:46:53.817Z,-1.06
2023-01-19T20:49:22.312Z,-0.99
2023-01-19T20:51:52.330Z,-1.00
2023-01-19T20:54:24.617Z,-1.18
2023-01-19T20:56:53.749Z,-1.09
2023-01-19T20:59:25.426Z,-1.29
2023-01-19T21:01:55.149Z,-1.32
2023-01-19T21:04:24.061Z,-1.22
2023-01-19T21:06:55.927Z,-1.13
2023-01-19T21:09:24.862Z,-1.08
2023-01-19T21:11:56.570Z,-1.14
2023-01-19T21:14:27.912Z,-0.99
2023-01-19T21:16:58.665Z,-0.96
2023-01-19T21:19:27.504Z,-0.95
2023-01-19T21:21:59.502Z,-0.95
2023-01-19T21:24:29.456Z,-1.16
2023-01-19T21:26:58.168Z,-1.04
2023-01-19T21:29:28.996Z,-1.12
2023-01-19T21:31:59.142Z,-1.50
2023-01-19T21:34:27.845Z,-1.80
2023-01-19T21:36:57.026Z,-1.91
2023-01-19T21:39:33.709Z,-1.91
2023-01-19T21:42:02.959Z,-1.54
2023-01-19T21:44:33.414Z,-1.59
2023-01-19T21:47:09.335Z,-1.38
2023-01-19T21:49:39.654Z,-1.29
2023-01-19T21:52:08.528Z,-1.13
2023-01-19T21:54:37.332Z,-1.18
2023-01-19T21:57:06.073Z,-1.30
2023-01-19T21:59:40.401Z,-1.54
2023-01-19T22:02:12.674Z,-1.36
2023-01-19T22:04:43.065Z,-1.49
2023-01-19T22:07:12.028Z,-1.38
2023-01-19T22:09:41.829Z,-1.45
2023-01-19T22:12:11.202Z,-1.37
2023-01-19T22:14:42.327Z,-1.27
2023-01-19T22:17:11.169Z,-1.31
2023-01-19T22:19:39.766Z,-1.26
2023-01-19T22:22:11.209Z,-1.43
2023-01-19T22:24:46.904Z,-1.54
2023-01-19T22:27:15.792Z,-1.74
2023-01-19T22:29:49.690Z,-1.73
2023-01-19T22:32:18.822Z,-1.57
2023-01-19T22:34:49.014Z,-1.65
2023-01-19T22:37:18.054Z,-1.73
2023-01-19T22:39:48.826Z,-1.68
2023-01-19T22:42:17.726Z,-1.74
2023-01-19T22:44:47.268Z,-1.65
2023-01-19T22:47:17.711Z,-1.76
2023-01-19T22:49:46.547Z,-1.85
2023-01-19T22:52:15.420Z,-1.87
2023-01-19T22:54:47.309Z,-1.81
2023-01-19T22:57:16.216Z,-1.60
2023-01-19T22:59:45.085Z,-1.47
2023-01-19T23:02:20.701Z,-1.75
2023-01-19T23:04:50.054Z,-1.83
2023-01-19T23:07:18.678Z,-1.58
2023-01-19T23:09:47.060Z,-1.28
2023-01-19T23:12:15.995Z,-1.63
2023-01-19T23:14:44.444Z,-1.55
2023-01-19T23:17:13.070Z,-1.25
2023-01-19T23:19:43.011Z,-1.62
2023-01-19T23:22:11.407Z,-1.82
2023-01-19T23:24:40.127Z,-1.87
2023-01-19T23:27:08.482Z,-1.83
2023-01-19T23:29:37.059Z,-1.69
2023-01-19T23:32:05.943Z,-1.86
2023-01-19T23:34:34.451Z,-1.87
2023-01-19T23:37:04.696Z,-1.80
2023-01-19T23:39:33.112Z,-1.68
2023-01-19T23:42:03.678Z,-1.45
2023-01-19T23:44:32.343Z,-1.62
2023-01-19T23:47:00.953Z,-1.69
2023-01-19T23:49:29.676Z,-1.62
2023-01-19T23:51:58.153Z,-1.78
2023-01-19T23:54:28.002Z,-1.80
2023-01-19T23:56:56.492Z,-1.54
2023-01-19T23:59:24.925Z,-1.73
